アスンシオン の空港の天気 - METARとTAF

シルビオ・ペッティロッシ国際空港 ( SGAS / ASU ) - パラグアイ アスンシオン
飛行場実況気象(Metar)
観測時間06/14 16:00 PYT (06/14 20:00 UTC)
風向・風速東南東 2m/s
視程10km以上
天気現象
なし
気温26℃
湿度48%
気圧1017hPa
METARSGAS 142000Z 12003KT 080V160 CAVOK 26/14 Q1017
過去の天気等 Google飛行場航空写真 Wunderground天気予報

過去48時間のMETAR

飛行場予報(TAF)
発表時間: 6/14 06:35 PYT (6/14 10:35 UTC)
予報対象時間: 14日8時 PYT ~ 15日8時 PYT
風向・風速不定 2m/s
視程10km以上
なし
14日13時 PYT ~ 14日16時 PYT に徐々に
風向・風速南東 4m/s
TAF SGAS 141035Z 1412/1512 VRB03KT CAVOK TX25/1419Z TN12/1510Z
BECMG 1417/1420 14008KT